createdAt,value
2023-05-01T00:01:06.401Z,7.77
2023-05-01T00:03:36.488Z,7.77
2023-05-01T00:06:08.275Z,7.82
2023-05-01T00:08:39.340Z,7.77
2023-05-01T00:11:11.711Z,7.74
2023-05-01T00:13:41.263Z,7.81
2023-05-01T00:16:11.422Z,7.83
2023-05-01T00:18:41.519Z,7.82
2023-05-01T00:21:11.197Z,7.82
2023-05-01T00:23:41.969Z,7.74
2023-05-01T00:26:11.352Z,7.71
2023-05-01T00:28:40.885Z,7.57
2023-05-01T00:31:10.501Z,7.39
2023-05-01T00:33:40.739Z,7.28
2023-05-01T00:36:10.852Z,7.26
2023-05-01T00:38:41.959Z,7.25
2023-05-01T00:41:11.355Z,7.19
2023-05-01T00:43:40.810Z,7.08
2023-05-01T00:46:11.484Z,6.86
2023-05-01T00:49:52.321Z,6.66
2023-05-01T00:52:21.665Z,6.65
2023-05-01T00:54:52.446Z,6.69
2023-05-01T00:57:23.213Z,6.71
2023-05-01T00:59:52.791Z,6.77
2023-05-01T01:02:22.790Z,6.73
2023-05-01T01:04:54.004Z,6.53
2023-05-01T01:07:43.617Z,6.44
2023-05-01T01:10:25.242Z,6.37
2023-05-01T01:13:10.993Z,6.20
2023-05-01T01:15:49.582Z,6.21
2023-05-01T01:18:25.750Z,6.29
2023-05-01T01:21:07.052Z,6.16
2023-05-01T01:24:25.686Z,6.08
2023-05-01T01:27:36.928Z,6.09
2023-05-01T01:30:49.182Z,6.18
2023-05-01T01:33:51.883Z,6.19
2023-05-01T01:36:27.454Z,6.16
2023-05-01T01:39:11.698Z,6.09
2023-05-01T01:41:42.926Z,6.01
2023-05-01T01:44:21.464Z,5.89
2023-05-01T01:46:54.382Z,5.69
2023-05-01T01:49:29.100Z,5.71
2023-05-01T01:52:01.982Z,5.59
2023-05-01T01:54:37.240Z,5.63
2023-05-01T01:57:09.893Z,5.60
2023-05-01T01:59:39.299Z,5.48
2023-05-01T02:02:10.409Z,5.42
2023-05-01T02:04:44.827Z,5.21
2023-05-01T02:07:16.530Z,5.15
2023-05-01T02:09:48.542Z,5.15
2023-05-01T02:12:19.678Z,5.14
2023-05-01T02:14:51.768Z,5.16
2023-05-01T02:17:22.968Z,5.32
2023-05-01T02:19:55.589Z,5.24
2023-05-01T02:22:25.998Z,5.22
2023-05-01T02:24:56.842Z,5.18
2023-05-01T02:27:31.481Z,5.06
2023-05-01T02:30:00.923Z,4.96
2023-05-01T02:32:30.399Z,4.98
2023-05-01T02:35:01.695Z,4.98
2023-05-01T02:37:31.422Z,5.03
2023-05-01T02:40:02.156Z,5.01
2023-05-01T02:42:32.493Z,4.97
2023-05-01T02:45:07.115Z,5.07
2023-05-01T02:47:40.919Z,5.04
2023-05-01T02:50:13.765Z,5.08
2023-05-01T02:52:43.840Z,5.09
2023-05-01T02:55:14.923Z,4.92
2023-05-01T02:57:44.409Z,4.82
2023-05-01T03:00:15.424Z,4.84
2023-05-01T03:02:44.942Z,4.88
2023-05-01T03:05:15.874Z,4.88
2023-05-01T03:07:45.264Z,4.77
2023-05-01T03:10:15.030Z,4.77
2023-05-01T03:12:44.582Z,4.80
2023-05-01T03:15:14.253Z,4.87
2023-05-01T03:17:43.835Z,4.95
2023-05-01T03:20:16.401Z,5.02
2023-05-01T03:22:46.063Z,5.04
2023-05-01T03:25:15.732Z,5.05
2023-05-01T03:27:45.367Z,5.11
2023-05-01T03:30:15.254Z,5.14
2023-05-01T03:32:44.929Z,5.10
2023-05-01T03:35:16.055Z,5.14
2023-05-01T03:37:45.510Z,5.14
2023-05-01T03:40:15.695Z,5.21
2023-05-01T03:42:45.197Z,5.25
2023-05-01T03:45:14.618Z,5.29
2023-05-01T03:50:50.889Z,5.29
2023-05-01T03:53:20.638Z,5.28
2023-05-01T03:55:50.576Z,5.26
2023-05-01T03:58:22.044Z,5.29
2023-05-01T04:00:51.384Z,5.33
2023-05-01T04:03:20.852Z,5.41
2023-05-01T04:05:51.878Z,5.50
2023-05-01T04:08:21.313Z,5.53
2023-05-01T04:10:50.890Z,5.52
2023-05-01T04:13:20.405Z,5.54
2023-05-01T04:15:49.874Z,5.51
2023-05-01T04:18:19.488Z,5.58
2023-05-01T04:20:50.523Z,5.66
2023-05-01T04:23:21.414Z,5.74
2023-05-01T04:25:51.850Z,5.88
2023-05-01T04:28:21.342Z,6.01
2023-05-01T04:30:51.001Z,6.18
2023-05-01T04:33:20.464Z,6.31
2023-05-01T04:35:51.347Z,6.50
2023-05-01T04:38:20.926Z,6.70
2023-05-01T04:40:50.430Z,6.90
2023-05-01T04:43:19.794Z,7.12
2023-05-01T04:45:50.008Z,7.34
2023-05-01T04:48:19.485Z,7.62
2023-05-01T04:50:50.409Z,7.87
2023-05-01T04:53:19.841Z,8.10
2023-05-01T04:55:49.328Z,8.37
2023-05-01T04:58:18.749Z,8.61
2023-05-01T05:00:48.319Z,8.91
2023-05-01T05:03:20.091Z,9.23
2023-05-01T05:05:51.164Z,9.48
2023-05-01T05:08:20.630Z,9.72
2023-05-01T05:10:50.115Z,9.93
2023-05-01T05:13:19.529Z,10.13
2023-05-01T05:15:49.028Z,10.31
2023-05-01T05:18:18.697Z,10.44
2023-05-01T05:20:50.562Z,10.50
2023-05-01T05:23:19.954Z,10.57
2023-05-01T05:25:49.412Z,10.62
2023-05-01T05:28:18.664Z,10.71
2023-05-01T05:30:48.277Z,10.89
2023-05-01T05:33:17.720Z,11.12
2023-05-01T05:35:47.331Z,11.38
2023-05-01T05:38:18.237Z,11.65
2023-05-01T05:40:47.802Z,11.86
2023-05-01T05:43:17.245Z,12.04
2023-05-01T05:45:46.699Z,12.21
2023-05-01T05:48:16.187Z,12.34
2023-05-01T05:50:46.030Z,12.35
2023-05-01T05:53:16.955Z,12.36
2023-05-01T05:55:46.823Z,12.40
2023-05-01T05:58:20.149Z,12.32
2023-05-01T06:00:50.372Z,12.30
2023-05-01T06:03:20.075Z,12.31
2023-05-01T06:05:50.255Z,12.34
2023-05-01T06:08:22.293Z,12.44
2023-05-01T06:10:51.693Z,12.53
2023-05-01T06:13:21.313Z,12.61
2023-05-01T06:15:50.831Z,12.70
2023-05-01T06:18:20.453Z,12.93
2023-05-01T06:20:50.168Z,13.12
2023-05-01T06:23:21.134Z,13.37
2023-05-01T06:25:50.690Z,13.74
2023-05-01T06:28:20.328Z,14.06
2023-05-01T06:30:49.837Z,14.23
2023-05-01T06:33:19.230Z,14.18
2023-05-01T06:35:48.701Z,14.17
2023-05-01T06:38:19.637Z,14.13
2023-05-01T06:40:51.663Z,14.13
2023-05-01T06:43:21.154Z,14.24
2023-05-01T06:45:50.515Z,14.33
2023-05-01T06:50:50.708Z,14.66
2023-05-01T06:53:20.235Z,14.71
2023-05-01T06:55:49.564Z,14.97
2023-05-01T06:58:24.159Z,15.21
2023-05-01T07:00:56.138Z,15.43
2023-05-01T07:03:27.874Z,15.56
2023-05-01T07:05:58.710Z,15.66
2023-05-01T07:08:28.962Z,15.88
2023-05-01T07:10:58.761Z,16.05
2023-05-01T07:13:28.418Z,16.15
2023-05-01T07:15:58.011Z,16.11
2023-05-01T07:18:27.479Z,15.97
2023-05-01T07:20:58.882Z,15.74
2023-05-01T07:23:28.468Z,15.64
2023-05-01T07:25:58.035Z,15.54
2023-05-01T07:28:27.689Z,15.52
2023-05-01T07:30:57.379Z,15.46
2023-05-01T07:33:27.186Z,15.26
2023-05-01T07:35:58.290Z,15.34
2023-05-01T07:38:27.939Z,15.53
2023-05-01T07:40:57.498Z,15.65
2023-05-01T07:43:26.908Z,15.73
2023-05-01T07:46:00.657Z,15.64
2023-05-01T07:48:32.038Z,15.36
2023-05-01T07:51:06.296Z,15.11
2023-05-01T07:53:35.801Z,15.15
2023-05-01T07:56:09.652Z,15.25
2023-05-01T07:58:41.204Z,15.23
2023-05-01T08:01:11.121Z,15.24
2023-05-01T08:03:40.891Z,15.51
2023-05-01T08:06:11.968Z,15.62
2023-05-01T08:08:41.561Z,15.56
2023-05-01T08:11:11.498Z,15.45
2023-05-01T08:13:41.092Z,15.17
2023-05-01T08:16:10.632Z,14.97
2023-05-01T08:18:40.108Z,14.95
2023-05-01T08:21:10.984Z,14.96
2023-05-01T08:23:40.666Z,15.22
2023-05-01T08:26:10.183Z,15.18
2023-05-01T08:28:39.807Z,14.96
2023-05-01T08:31:09.448Z,14.84
2023-05-01T08:33:42.070Z,14.65
2023-05-01T08:36:13.960Z,14.54
2023-05-01T08:38:43.528Z,14.50
2023-05-01T08:41:18.060Z,14.42
2023-05-01T08:43:47.818Z,14.48
2023-05-01T08:46:30.834Z,14.50
2023-05-01T08:49:03.020Z,14.45
2023-05-01T08:51:36.375Z,14.44
2023-05-01T08:54:08.559Z,14.46
2023-05-01T08:56:38.695Z,14.41
2023-05-01T08:59:09.073Z,14.40
2023-05-01T09:01:39.700Z,14.43
2023-05-01T09:04:10.513Z,14.39
2023-05-01T09:06:41.847Z,14.39
2023-05-01T09:09:11.334Z,14.34
2023-05-01T09:11:40.800Z,14.22
2023-05-01T09:14:10.280Z,14.09
2023-05-01T09:16:39.942Z,14.05
2023-05-01T09:19:09.378Z,14.03
2023-05-01T09:21:40.392Z,14.00
2023-05-01T09:24:09.823Z,13.93
2023-05-01T09:26:43.408Z,13.94
2023-05-01T09:29:14.691Z,13.99
2023-05-01T09:31:44.331Z,14.00
2023-05-01T09:34:13.897Z,13.97
2023-05-01T09:36:48.733Z,13.93
2023-05-01T09:39:25.580Z,13.75
2023-05-01T09:41:55.208Z,13.67
2023-05-01T09:44:25.818Z,13.68
2023-05-01T09:46:55.536Z,13.81
2023-05-01T09:50:50.573Z,14.05
2023-05-01T09:53:20.003Z,14.00
2023-05-01T09:56:03.446Z,13.96
2023-05-01T09:58:32.859Z,13.92
2023-05-01T10:01:02.518Z,13.84
2023-05-01T10:03:32.139Z,13.78
2023-05-01T10:06:04.521Z,13.73
2023-05-01T10:08:48.268Z,13.69
2023-05-01T10:11:18.204Z,13.76
2023-05-01T10:13:47.662Z,13.81
2023-05-01T10:16:32.669Z,13.80
2023-05-01T10:19:04.549Z,13.82
2023-05-01T10:21:36.624Z,13.83
2023-05-01T10:24:08.033Z,13.84
2023-05-01T10:26:38.200Z,13.72
2023-05-01T10:29:07.560Z,13.13
2023-05-01T10:31:38.692Z,12.80
2023-05-01T10:34:09.344Z,12.54
2023-05-01T10:36:46.420Z,12.34
2023-05-01T10:39:33.933Z,12.16
2023-05-01T10:42:05.353Z,12.01
2023-05-01T10:44:36.304Z,11.92
2023-05-01T10:47:48.936Z,11.81
2023-05-01T10:50:18.982Z,11.78
2023-05-01T10:53:20.528Z,11.62
2023-05-01T10:55:51.504Z,11.46
2023-05-01T11:10:52.986Z,11.76
2023-05-01T11:14:00.965Z,12.13
2023-05-01T11:16:49.727Z,12.30
2023-05-01T11:19:52.761Z,12.71
2023-05-01T11:22:22.398Z,12.93
2023-05-01T11:24:51.914Z,13.28
2023-05-01T11:27:24.308Z,13.53
2023-05-01T11:29:54.852Z,13.74
2023-05-01T11:32:30.348Z,14.08
2023-05-01T11:35:00.621Z,14.23
2023-05-01T11:37:44.544Z,14.44
2023-05-01T11:40:25.378Z,14.81
2023-05-01T11:43:05.343Z,15.03
2023-05-01T11:45:37.094Z,15.36
2023-05-01T11:48:07.723Z,15.62
2023-05-01T11:50:39.156Z,15.83
2023-05-01T11:53:16.083Z,15.68
2023-05-01T11:55:46.697Z,15.76
2023-05-01T11:58:18.158Z,15.96
2023-05-01T12:00:47.551Z,16.13
2023-05-01T12:03:17.851Z,16.21
2023-05-01T12:05:47.822Z,16.44
2023-05-01T12:08:19.938Z,16.46
2023-05-01T12:10:52.157Z,16.39
2023-05-01T12:13:23.496Z,16.17
2023-05-01T12:15:55.465Z,15.93
2023-05-01T12:18:25.506Z,16.02
2023-05-01T12:20:57.148Z,16.33
2023-05-01T12:23:35.063Z,16.39
2023-05-01T12:26:04.622Z,16.19
2023-05-01T12:28:35.584Z,16.39
2023-05-01T12:31:05.743Z,16.52
2023-05-01T12:33:35.349Z,17.02
2023-05-01T12:36:13.044Z,17.28
2023-05-01T12:38:43.053Z,17.18
2023-05-01T12:41:13.544Z,16.97
2023-05-01T12:43:44.575Z,16.79
2023-05-01T12:46:18.072Z,16.77
2023-05-01T12:50:55.056Z,16.65
2023-05-01T12:53:26.100Z,16.48
2023-05-01T12:55:57.288Z,16.34
2023-05-01T12:58:37.480Z,16.37
2023-05-01T13:01:07.576Z,16.37
2023-05-01T13:03:40.185Z,16.10
2023-05-01T13:06:17.084Z,15.92
2023-05-01T13:08:46.617Z,15.75
2023-05-01T13:11:17.944Z,15.58
2023-05-01T13:13:48.524Z,15.56
2023-05-01T13:16:20.522Z,15.57
2023-05-01T13:18:51.887Z,15.84
2023-05-01T13:21:24.960Z,16.12
2023-05-01T13:23:57.164Z,16.33
2023-05-01T13:26:31.705Z,16.44
2023-05-01T13:29:03.380Z,16.61
2023-05-01T13:31:33.455Z,16.65
2023-05-01T13:34:03.459Z,16.71
2023-05-01T13:36:35.483Z,16.83
2023-05-01T13:39:05.341Z,16.61
2023-05-01T13:41:35.631Z,16.41
2023-05-01T13:44:05.976Z,16.31
2023-05-01T13:46:35.768Z,16.39
2023-05-01T13:49:09.503Z,16.55
2023-05-01T13:51:44.922Z,16.68
2023-05-01T13:54:15.362Z,16.66
2023-05-01T13:56:44.710Z,16.57
2023-05-01T13:59:14.112Z,16.53
2023-05-01T14:01:46.717Z,16.45
2023-05-01T14:04:21.450Z,16.27
2023-05-01T14:06:52.566Z,16.08
2023-05-01T14:09:22.391Z,15.88
2023-05-01T14:11:53.394Z,15.81
2023-05-01T14:14:22.973Z,15.77
2023-05-01T14:16:54.388Z,15.59
2023-05-01T14:19:24.075Z,15.49
2023-05-01T14:21:54.961Z,15.67
2023-05-01T14:24:24.374Z,15.73
2023-05-01T14:26:53.828Z,15.80
2023-05-01T14:29:30.191Z,15.80
2023-05-01T14:32:05.435Z,15.75
2023-05-01T14:34:35.090Z,15.70
2023-05-01T14:37:05.911Z,15.62
2023-05-01T14:39:35.542Z,15.53
2023-05-01T14:42:05.912Z,15.38
2023-05-01T14:44:35.625Z,15.25
2023-05-01T14:47:05.196Z,15.12
2023-05-01T14:49:34.624Z,15.02
2023-05-01T14:52:06.935Z,14.96
2023-05-01T14:54:48.665Z,14.86
2023-05-01T14:57:18.285Z,14.70
2023-05-01T14:59:47.800Z,14.53
2023-05-01T15:02:17.429Z,14.34
2023-05-01T15:04:46.943Z,14.27
2023-05-01T15:07:18.048Z,14.19
2023-05-01T15:09:47.744Z,14.12
2023-05-01T15:12:17.171Z,14.05
2023-05-01T15:14:46.688Z,14.00
2023-05-01T15:17:16.349Z,13.96
2023-05-01T15:19:45.909Z,13.92
2023-05-01T15:22:16.805Z,13.89
2023-05-01T15:24:46.305Z,13.81
2023-05-01T15:27:15.891Z,13.80
2023-05-01T15:29:45.373Z,13.75
2023-05-01T15:32:15.000Z,13.68
2023-05-01T15:34:44.508Z,13.64
2023-05-01T15:37:13.952Z,13.58
2023-05-01T15:39:44.954Z,13.44
2023-05-01T15:42:14.432Z,13.26
2023-05-01T15:44:43.981Z,13.14
2023-05-01T15:47:14.834Z,13.03
2023-05-01T15:50:50.416Z,12.88
2023-05-01T15:53:21.230Z,12.80
2023-05-01T15:55:51.263Z,12.71
2023-05-01T15:58:21.020Z,12.68
2023-05-01T16:00:50.846Z,12.78
2023-05-01T16:03:20.680Z,12.88
2023-05-01T16:05:51.759Z,12.93
2023-05-01T16:08:21.326Z,12.93
2023-05-01T16:10:51.308Z,12.92
2023-05-01T16:13:20.864Z,12.92
2023-05-01T16:15:50.281Z,12.93
2023-05-01T16:18:23.841Z,12.99
2023-05-01T16:20:55.549Z,12.97
2023-05-01T16:23:27.947Z,12.84
2023-05-01T16:25:57.280Z,12.69
2023-05-01T16:28:27.564Z,12.60
2023-05-01T16:30:57.413Z,12.45
2023-05-01T16:33:26.792Z,12.40
2023-05-01T16:35:59.752Z,12.35
2023-05-01T16:38:29.258Z,12.28
2023-05-01T16:40:58.907Z,12.17
2023-05-01T16:43:28.536Z,12.07
2023-05-01T16:46:00.258Z,12.00
2023-05-01T16:48:30.306Z,11.90
2023-05-01T16:51:01.411Z,11.77
2023-05-01T16:53:32.295Z,11.70
2023-05-01T16:56:01.919Z,11.56
2023-05-01T16:58:31.183Z,11.48
2023-05-01T17:01:00.855Z,11.38
2023-05-01T17:03:30.976Z,11.32
2023-05-01T17:06:01.822Z,11.22
2023-05-01T17:08:31.158Z,11.13
2023-05-01T17:11:01.184Z,11.01
2023-05-01T17:13:31.272Z,10.87
2023-05-01T17:16:01.101Z,10.75
2023-05-01T17:18:30.516Z,10.68
2023-05-01T17:21:01.626Z,10.61
2023-05-01T17:23:31.118Z,10.55
2023-05-01T17:26:01.155Z,10.46
2023-05-01T17:28:30.538Z,10.39
2023-05-01T17:30:59.902Z,10.27
2023-05-01T17:33:32.446Z,10.12
2023-05-01T17:36:03.095Z,10.04
2023-05-01T17:38:32.500Z,9.99
2023-05-01T17:41:02.076Z,9.92
2023-05-01T17:43:31.474Z,9.81
2023-05-01T17:46:00.977Z,9.71
2023-05-01T17:48:30.316Z,9.65
2023-05-01T17:50:59.717Z,9.57
2023-05-01T17:53:30.803Z,9.47
2023-05-01T17:56:00.437Z,9.44
2023-05-01T17:58:29.882Z,9.39
2023-05-01T18:00:59.252Z,9.30
2023-05-01T18:03:28.941Z,9.21
2023-05-01T18:05:58.787Z,9.14
2023-05-01T18:08:29.816Z,9.08
2023-05-01T18:10:59.266Z,9.01
2023-05-01T18:13:30.267Z,8.97
2023-05-01T18:15:59.762Z,8.91
2023-05-01T18:18:29.219Z,8.75
2023-05-01T18:20:58.774Z,8.66
2023-05-01T18:23:29.781Z,8.63
2023-05-01T18:25:59.511Z,8.60
2023-05-01T18:28:29.101Z,8.55
2023-05-01T18:30:58.613Z,8.48
2023-05-01T18:33:28.421Z,8.45
2023-05-01T18:35:57.889Z,8.37
2023-05-01T18:38:28.477Z,8.31
2023-05-01T18:40:59.597Z,8.24
2023-05-01T18:43:28.981Z,8.16
2023-05-01T18:45:58.885Z,8.09
2023-05-01T18:51:06.799Z,8.00
2023-05-01T18:53:37.674Z,7.96
2023-05-01T18:56:09.643Z,7.93
2023-05-01T18:58:40.076Z,7.88
2023-05-01T19:01:09.613Z,7.86
2023-05-01T19:03:39.089Z,7.84
2023-05-01T19:06:10.737Z,7.81
2023-05-01T19:08:40.170Z,7.76
2023-05-01T19:11:09.592Z,7.74
2023-05-01T19:13:39.630Z,7.72
2023-05-01T19:16:09.167Z,7.70
2023-05-01T19:18:39.196Z,7.66
2023-05-01T19:21:11.322Z,7.61
2023-05-01T19:23:41.694Z,7.58
2023-05-01T19:26:13.175Z,7.53
2023-05-01T19:28:44.187Z,7.50
2023-05-01T19:31:14.661Z,7.46
2023-05-01T19:33:44.384Z,7.47
2023-05-01T19:36:15.378Z,7.49
2023-05-01T19:38:45.620Z,7.46
2023-05-01T19:41:15.281Z,7.45
2023-05-01T19:43:44.818Z,7.44
2023-05-01T19:46:14.360Z,7.42
2023-05-01T19:48:44.782Z,7.38
2023-05-01T19:51:15.864Z,7.39
2023-05-01T19:53:45.341Z,7.42
2023-05-01T19:56:14.854Z,7.39
2023-05-01T19:58:44.408Z,7.34
2023-05-01T20:01:14.005Z,7.36
2023-05-01T20:03:43.909Z,7.35
2023-05-01T20:06:15.128Z,7.37
2023-05-01T20:08:44.550Z,7.37
2023-05-01T20:11:14.516Z,7.35
2023-05-01T20:13:45.666Z,7.28
2023-05-01T20:16:15.218Z,7.32
2023-05-01T20:18:45.640Z,7.35
2023-05-01T20:21:16.786Z,7.37
2023-05-01T20:23:46.459Z,7.40
2023-05-01T20:26:17.778Z,7.44
2023-05-01T20:28:47.806Z,7.46
2023-05-01T20:31:17.498Z,7.42
2023-05-01T20:33:47.307Z,7.43
2023-05-01T20:36:18.633Z,7.38
2023-05-01T20:38:48.890Z,7.37
2023-05-01T20:41:18.288Z,7.37
2023-05-01T20:43:47.917Z,7.34
2023-05-01T20:46:17.653Z,7.30
2023-05-01T20:48:47.723Z,7.36
2023-05-01T20:51:18.829Z,7.28
2023-05-01T20:53:48.728Z,7.26
2023-05-01T20:56:18.141Z,7.28
2023-05-01T20:58:48.178Z,7.32
2023-05-01T21:01:17.739Z,7.37
2023-05-01T21:03:47.308Z,7.45
2023-05-01T21:06:18.370Z,7.42
2023-05-01T21:08:48.607Z,7.37
2023-05-01T21:11:18.080Z,7.32
2023-05-01T21:13:47.446Z,7.29
2023-05-01T21:16:17.767Z,7.25
2023-05-01T21:18:47.191Z,7.20
2023-05-01T21:21:18.903Z,7.15
2023-05-01T21:23:50.220Z,7.12
2023-05-01T21:26:19.890Z,7.07
2023-05-01T21:28:49.379Z,7.00
2023-05-01T21:31:18.932Z,6.99
2023-05-01T21:33:48.397Z,6.99
2023-05-01T21:36:21.019Z,7.00
2023-05-01T21:38:50.467Z,6.96
2023-05-01T21:41:19.868Z,6.90
2023-05-01T21:43:49.221Z,6.87
2023-05-01T21:46:20.756Z,6.81
2023-05-01T21:50:52.249Z,6.74
2023-05-01T21:53:21.538Z,6.72
2023-05-01T21:55:51.253Z,6.70
2023-05-01T21:58:20.608Z,6.65
2023-05-01T22:00:50.276Z,6.58
2023-05-01T22:03:20.596Z,6.59
2023-05-01T22:05:51.643Z,6.61
2023-05-01T22:08:21.201Z,6.58
2023-05-01T22:10:50.643Z,6.58
2023-05-01T22:13:19.993Z,6.57
2023-05-01T22:15:49.546Z,6.59
2023-05-01T22:18:19.873Z,6.61
2023-05-01T22:20:50.866Z,6.61
2023-05-01T22:23:20.126Z,6.62
2023-05-01T22:25:49.725Z,6.64
2023-05-01T22:28:20.908Z,6.59
2023-05-01T22:30:50.373Z,6.52
2023-05-01T22:33:19.794Z,6.44
2023-05-01T22:35:50.700Z,6.37
2023-05-01T22:38:20.054Z,6.31
2023-05-01T22:40:49.429Z,6.27
2023-05-01T22:43:19.021Z,6.20
2023-05-01T22:45:48.506Z,6.22
2023-05-01T22:48:17.982Z,6.27
2023-05-01T22:50:47.429Z,6.23
2023-05-01T22:53:18.312Z,6.17
2023-05-01T22:55:47.812Z,6.15
2023-05-01T22:58:17.301Z,6.13
2023-05-01T23:00:46.994Z,6.12
2023-05-01T23:03:16.484Z,6.12
2023-05-01T23:05:46.071Z,6.09
2023-05-01T23:08:18.404Z,6.06
2023-05-01T23:10:47.780Z,5.97
2023-05-01T23:13:23.732Z,5.95
2023-05-01T23:15:53.440Z,5.90
2023-05-01T23:18:26.702Z,5.86
2023-05-01T23:20:56.122Z,5.83
2023-05-01T23:23:32.112Z,5.80
2023-05-01T23:26:01.696Z,5.75
2023-05-01T23:28:31.380Z,5.71
2023-05-01T23:31:02.769Z,5.71
2023-05-01T23:33:38.106Z,5.63
2023-05-01T23:36:12.721Z,5.72
2023-05-01T23:38:43.482Z,5.85
2023-05-01T23:41:13.078Z,5.87
2023-05-01T23:43:42.796Z,5.85
2023-05-01T23:46:12.584Z,5.82
2023-05-01T23:48:43.455Z,5.75
2023-05-01T23:51:13.103Z,5.74
2023-05-01T23:53:44.015Z,5.75
2023-05-01T23:56:13.449Z,5.77
2023-05-01T23:58:42.799Z,5.77
